Time;durP1;ratioP1;P1;durP2;ratioP2;P2;SDS_P1;SDS_P2;PMS_P1;PMS_P2;Temp;Humidity;BMP_temperature;BMP_pressure;BME280_temperature;BME280_humidity;BME280_pressure;Samples;Min_cycle;Max_cycle;Signal;HPM_P1;HPM_P2
2022/06/11 00:00:51;;;;;;;12.88;11.52;;;;;;;21.21;100.00;99536.16;5032415;28;20200;-72
2022/06/11 00:03:19;;;;;;;13.00;11.77;;;;;;;21.26;100.00;99539.47;5032625;28;20649;-72
2022/06/11 00:05:46;;;;;;;12.63;11.43;;;;;;;21.01;100.00;99506.97;5032238;28;20211;-71
2022/06/11 00:08:13;;;;;;;12.88;11.60;;;;;;;21.26;100.00;99528.94;5032157;28;20211;-72
2022/06/11 00:10:40;;;;;;;12.82;11.50;;;;;;;21.34;100.00;99530.41;5031355;28;20649;-72
2022/06/11 00:13:07;;;;;;;15.80;12.48;;;;;;;21.36;100.00;99513.66;5032256;28;20228;-71
2022/06/11 00:15:34;;;;;;;14.48;11.70;;;;;;;21.27;100.00;99519.25;4997332;28;20200;-71
2022/06/11 00:18:01;;;;;;;12.40;11.10;;;;;;;21.21;100.00;99517.72;5031902;28;20200;-71
2022/06/11 00:20:31;;;;;;;13.27;11.57;;;;;;;21.10;100.00;99495.25;5032333;28;20196;-71
2022/06/11 00:22:58;;;;;;;12.55;11.35;;;;;;;21.23;100.00;99521.13;5031731;28;20223;-71
2022/06/11 00:25:25;;;;;;;13.88;12.27;;;;;;;21.07;100.00;99506.78;4996724;28;20196;-71
2022/06/11 00:27:52;;;;;;;14.65;11.68;;;;;;;21.08;100.00;99534.00;5032310;28;20671;-71
2022/06/11 00:30:20;;;;;;;15.75;12.55;;;;;;;20.87;100.00;99472.38;5031570;28;20200;-71
2022/06/11 00:32:48;;;;;;;13.38;11.93;;;;;;;20.99;100.00;99536.97;5031413;28;20291;-72
2022/06/11 00:35:15;;;;;;;14.40;12.27;;;;;;;21.08;100.00;99540.13;5031153;28;20203;-72
2022/06/11 00:37:44;;;;;;;14.50;12.48;;;;;;;21.02;100.00;99498.16;5031550;28;20208;-71
2022/06/11 00:40:15;;;;;;;13.73;11.82;;;;;;;20.94;100.00;99505.50;5031754;28;20298;-71
2022/06/11 00:42:41;;;;;;;13.43;11.32;;;;;;;20.95;100.00;99530.94;5031850;28;20224;-71
2022/06/11 00:45:25;;;;;;;15.70;12.07;;;;;;;21.16;100.00;99531.97;5031663;28;20204;-71
2022/06/11 00:47:56;;;;;;;14.23;12.25;;;;;;;21.02;100.00;99529.81;5031867;28;20200;-71
2022/06/11 00:50:27;;;;;;;15.13;12.30;;;;;;;21.13;100.00;99548.78;5031580;28;20706;-72
2022/06/11 00:52:58;;;;;;;14.90;13.40;;;;;;;21.20;100.00;99550.25;5031298;28;20310;-71
2022/06/11 00:55:28;;;;;;;14.02;11.73;;;;;;;20.60;100.00;99483.91;5031812;28;20202;-71
2022/06/11 00:57:58;;;;;;;15.25;12.18;;;;;;;21.02;100.00;99544.75;5030928;28;20668;-71
2022/06/11 01:00:30;;;;;;;14.20;12.85;;;;;;;20.98;100.00;99536.09;5031485;28;20203;-71
2022/06/11 01:02:59;;;;;;;14.35;12.55;;;;;;;21.14;100.00;99555.78;5031611;28;20234;-71
2022/06/11 01:05:29;;;;;;;14.30;12.80;;;;;;;21.05;100.00;99563.09;5030988;28;20212;-71
2022/06/11 01:08:12;;;;;;;14.85;12.80;;;;;;;21.08;100.00;99570.91;5031261;28;20211;-71
2022/06/11 01:11:01;;;;;;;14.00;12.60;;;;;;;21.09;100.00;99557.66;5031459;28;20304;-71
2022/06/11 01:13:35;;;;;;;14.20;12.80;;;;;;;21.07;100.00;99553.38;5031216;28;20223;-71
2022/06/11 01:16:09;;;;;;;16.08;13.73;;;;;;;20.98;100.00;99562.47;5031334;28;20215;-71
2022/06/11 01:18:46;;;;;;;14.70;13.05;;;;;;;20.98;100.00;99559.81;5030424;28;20576;-71
2022/06/11 01:21:30;;;;;;;15.10;13.05;;;;;;;20.96;100.00;99556.41;5031514;28;20664;-71
2022/06/11 01:24:29;;;;;;;13.85;12.43;;;;;;;20.97;100.00;99558.13;5030786;28;20222;-71
2022/06/11 01:27:22;;;;;;;18.02;13.27;;;;;;;20.73;100.00;99546.66;5031040;28;20214;-71
2022/06/11 01:29:57;;;;;;;18.58;12.88;;;;;;;20.84;100.00;99555.94;4992216;28;20200;-71
2022/06/11 01:32:34;;;;;;;19.60;13.10;;;;;;;20.90;100.00;99548.72;5030690;28;20204;-71
2022/06/11 01:35:16;;;;;;;15.85;13.05;;;;;;;20.87;100.00;99556.69;5031206;28;20563;-71
2022/06/11 01:37:49;;;;;;;17.02;13.52;;;;;;;20.80;100.00;99555.19;5029586;28;20239;-72
2022/06/11 01:40:27;;;;;;;15.77;13.98;;;;;;;20.85;100.00;99545.38;5031041;28;20668;-71
2022/06/11 01:42:57;;;;;;;17.52;12.48;;;;;;;20.82;100.00;99536.72;5030633;28;20247;-71
2022/06/11 01:45:28;;;;;;;15.82;12.98;;;;;;;20.57;100.00;99479.63;5030832;28;20668;-71
2022/06/11 01:47:57;;;;;;;16.73;13.95;;;;;;;20.97;100.00;99550.22;5031122;28;20628;-71
2022/06/11 01:50:26;;;;;;;15.73;14.13;;;;;;;21.04;100.00;99558.75;5030968;28;20207;-71
2022/06/11 01:53:37;;;;;;;16.95;13.73;;;;;;;21.09;100.00;99562.94;5030683;28;20547;-71
2022/06/11 01:56:17;;;;;;;16.75;13.55;;;;;;;20.91;100.00;99558.31;4988683;28;20205;-71
2022/06/11 01:59:00;;;;;;;16.30;13.65;;;;;;;21.04;100.00;99567.53;4988543;28;20198;-71
2022/06/11 02:01:49;;;;;;;16.17;14.32;;;;;;;21.15;100.00;99568.00;4975953;28;20724;-72
2022/06/11 02:04:27;;;;;;;18.48;14.85;;;;;;;20.96;100.00;99545.84;4989113;28;20319;-71
2022/06/11 02:07:00;;;;;;;16.40;14.65;;;;;;;21.24;100.00;99567.69;4988959;28;20201;-71
2022/06/11 02:09:36;;;;;;;16.02;14.32;;;;;;;20.98;100.00;99536.09;4989147;28;20232;-71
2022/06/11 02:12:11;;;;;;;19.70;14.60;;;;;;;21.15;100.00;99567.19;4989001;28;20201;-71
2022/06/11 02:14:47;;;;;;;20.83;15.15;;;;;;;21.04;100.00;99580.72;4988857;28;20228;-72
2022/06/11 02:17:18;;;;;;;18.92;16.23;;;;;;;20.95;100.00;99569.63;4988665;28;20208;-71
2022/06/11 02:19:49;;;;;;;21.52;16.23;;;;;;;20.74;100.00;99581.78;4988576;28;20270;-71
2022/06/11 02:22:22;;;;;;;21.20;15.50;;;;;;;20.55;100.00;99564.84;4988684;28;20205;-71
2022/06/11 02:24:53;;;;;;;19.80;15.20;;;;;;;20.67;100.00;99580.25;4988555;28;20344;-71
2022/06/11 02:27:24;;;;;;;20.75;16.30;;;;;;;20.29;100.00;99523.63;4987929;28;20206;-71
2022/06/11 02:29:53;;;;;;;20.42;15.82;;;;;;;20.38;100.00;99572.47;4988939;28;20337;-71
2022/06/11 02:32:24;;;;;;;20.85;16.52;;;;;;;20.36;100.00;99579.56;5003156;28;20667;-72
2022/06/11 02:34:54;;;;;;;22.98;17.45;;;;;;;20.35;100.00;99570.81;5030299;28;20287;-72
2022/06/11 02:37:25;;;;;;;27.50;18.90;;;;;;;20.45;100.00;99579.25;5010750;28;20204;-72
2022/06/11 02:39:54;;;;;;;23.90;18.02;;;;;;;20.36;100.00;99576.94;5010551;28;20666;-71
2022/06/11 02:42:24;;;;;;;23.00;17.35;;;;;;;20.21;100.00;99573.00;5014293;28;20581;-71
2022/06/11 02:44:51;;;;;;;23.90;18.65;;;;;;;20.20;100.00;99571.25;5014324;28;20205;-71
2022/06/11 02:47:20;;;;;;;26.58;19.70;;;;;;;20.17;100.00;99569.59;5014146;28;20208;-71
2022/06/11 02:49:49;;;;;;;26.80;19.48;;;;;;;20.25;100.00;99567.59;4983152;28;20193;-71
2022/06/11 02:52:19;;;;;;;25.70;19.42;;;;;;;20.40;100.00;99562.75;5014090;28;20280;-71
2022/06/11 02:54:47;;;;;;;26.83;20.38;;;;;;;20.30;100.00;99563.97;5013907;28;20193;-71
2022/06/11 02:57:16;;;;;;;26.20;19.98;;;;;;;20.52;100.00;99559.69;5014771;28;20250;-71
2022/06/11 02:59:45;;;;;;;27.75;19.90;;;;;;;20.31;100.00;99540.22;5033016;28;20291;-71
2022/06/11 03:02:12;;;;;;;26.60;18.65;;;;;;;20.27;100.00;99559.63;5033563;28;20188;-71
2022/06/11 03:04:39;;;;;;;24.83;19.17;;;;;;;20.37;100.00;99550.53;5033564;28;20228;-71
2022/06/11 03:07:09;;;;;;;25.10;18.52;;;;;;;20.44;100.00;99569.66;5033594;28;20212;-71
2022/06/11 03:09:39;;;;;;;27.77;18.98;;;;;;;20.41;100.00;99575.00;5033515;28;20259;-71
2022/06/11 03:12:07;;;;;;;21.80;17.45;;;;;;;20.34;100.00;99566.44;5033239;28;20597;-71
2022/06/11 03:14:34;;;;;;;23.70;19.13;;;;;;;20.15;100.00;99526.69;5032482;28;20231;-71
2022/06/11 03:17:01;;;;;;;27.02;18.90;;;;;;;20.43;100.00;99571.41;5033102;28;20212;-72
2022/06/11 03:19:28;;;;;;;21.98;18.25;;;;;;;20.49;100.00;99571.19;5033432;28;20671;-71
2022/06/11 03:21:56;;;;;;;23.27;18.27;;;;;;;20.49;100.00;99570.34;5033211;28;20219;-72
2022/06/11 03:24:27;;;;;;;22.48;17.33;;;;;;;20.33;100.00;99548.06;5032115;28;20233;-72
2022/06/11 03:26:54;;;;;;;18.70;14.27;;;;;;;20.35;100.00;99572.56;5031083;28;20196;-72
2022/06/11 03:29:22;;;;;;;31.13;18.45;;;;;;;20.38;100.00;99575.09;5032515;28;20205;-72
2022/06/11 03:31:50;;;;;;;27.52;19.77;;;;;;;20.52;100.00;99578.13;5033071;28;20204;-72
2022/06/11 03:34:17;;;;;;;27.13;20.05;;;;;;;20.54;100.00;99578.97;5032835;28;20200;-72
2022/06/11 03:36:45;;;;;;;25.77;20.35;;;;;;;20.59;100.00;99584.91;5032188;28;20573;-72
2022/06/11 03:39:15;;;;;;;27.08;17.77;;;;;;;20.56;100.00;99574.47;5032951;28;20200;-72
2022/06/11 03:41:44;;;;;;;25.65;17.55;;;;;;;20.57;100.00;99573.59;5032986;28;20207;-72
2022/06/11 03:44:12;;;;;;;27.20;17.83;;;;;;;20.64;100.00;99577.72;5032951;28;20243;-72
2022/06/11 03:46:39;;;;;;;23.40;17.30;;;;;;;20.59;100.00;99558.56;5032467;28;20779;-72
2022/06/11 03:49:06;;;;;;;23.48;17.02;;;;;;;20.51;100.00;99552.72;5032648;28;20227;-71
2022/06/11 03:51:33;;;;;;;28.02;18.42;;;;;;;20.75;100.00;99570.31;5031861;28;20204;-71
2022/06/11 03:54:00;;;;;;;24.88;17.42;;;;;;;20.75;100.00;99578.22;5032224;28;20200;-73
2022/06/11 03:56:27;;;;;;;29.73;20.45;;;;;;;20.72;100.00;99576.56;5032068;28;20208;-72
2022/06/11 03:58:55;;;;;;;25.58;17.13;;;;;;;20.81;100.00;99562.19;5032516;28;21093;-70
2022/06/11 04:01:23;;;;;;;21.85;16.85;;;;;;;20.45;100.00;99534.47;5014098;28;20200;-71
2022/06/11 04:03:53;;;;;;;21.13;16.17;;;;;;;20.48;100.00;99564.19;5031982;28;20801;-71
2022/06/11 04:06:22;;;;;;;24.98;17.45;;;;;;;20.34;100.00;99557.66;5032668;28;20294;-70
2022/06/11 04:08:50;;;;;;;25.27;18.27;;;;;;;20.57;100.00;99576.22;5032561;28;20215;-71
2022/06/11 04:11:18;;;;;;;22.55;18.00;;;;;;;20.81;100.00;99578.00;5032901;28;20204;-70
2022/06/11 04:13:46;;;;;;;24.73;18.20;;;;;;;20.74;100.00;99576.50;5031754;28;20216;-71
2022/06/11 04:16:24;;;;;;;28.25;17.73;;;;;;;20.74;100.00;99556.28;5031426;28;20627;-70
2022/06/11 04:18:52;;;;;;;21.80;17.45;;;;;;;20.98;100.00;99580.91;5008433;28;20196;-70
2022/06/11 04:21:19;;;;;;;28.63;18.45;;;;;;;21.04;100.00;99564.91;5031234;28;20215;-70
2022/06/11 04:23:49;;;;;;;23.52;16.70;;;;;;;21.13;100.00;99590.94;5031026;28;20224;-70
2022/06/11 04:26:18;;;;;;;27.23;15.95;;;;;;;21.13;100.00;99590.94;5030251;28;20204;-70
2022/06/11 04:28:46;;;;;;;21.52;15.90;;;;;;;21.22;100.00;99577.41;5030300;28;20193;-70
2022/06/11 04:31:15;;;;;;;22.10;16.67;;;;;;;21.26;100.00;99600.13;5030577;28;20208;-71
2022/06/11 04:33:44;;;;;;;20.48;15.75;;;;;;;21.17;100.00;99597.84;5031367;28;20208;-71
2022/06/11 04:36:12;;;;;;;25.95;17.13;;;;;;;21.01;100.00;99596.63;5031610;28;20196;-70
2022/06/11 04:38:39;;;;;;;25.35;17.20;;;;;;;20.90;100.00;99601.44;5031555;28;20200;-71
2022/06/11 04:41:08;;;;;;;23.17;17.70;;;;;;;20.86;100.00;99597.16;5031378;28;20196;-71
2022/06/11 04:43:35;;;;;;;24.42;16.98;;;;;;;20.77;100.00;99597.47;5031466;28;20720;-70
2022/06/11 04:46:02;;;;;;;24.38;17.08;;;;;;;20.52;100.00;99570.22;5031307;28;20611;-70
2022/06/11 04:48:30;;;;;;;23.98;17.50;;;;;;;20.50;100.00;99561.53;5031010;28;20204;-70
2022/06/11 04:51:00;;;;;;;23.40;17.08;;;;;;;20.89;100.00;99602.34;5031061;28;20204;-70
2022/06/11 04:53:27;;;;;;;28.42;16.95;;;;;;;20.93;100.00;99611.84;5031638;28;20285;-69
2022/06/11 04:55:54;;;;;;;25.15;16.52;;;;;;;20.74;100.00;99608.13;5031497;28;20632;-68
2022/06/11 04:58:21;;;;;;;24.75;17.95;;;;;;;20.66;100.00;99592.56;5030934;28;20200;-71
2022/06/11 05:00:48;;;;;;;30.30;18.48;;;;;;;20.60;100.00;99594.56;5031572;28;20200;-71
2022/06/11 05:03:15;;;;;;;31.05;17.63;;;;;;;20.98;100.00;99612.53;5030106;28;20751;-70
2022/06/11 05:05:43;;;;;;;23.17;18.00;;;;;;;21.01;100.00;99606.31;5031335;28;20208;-70
2022/06/11 05:08:12;;;;;;;25.88;18.58;;;;;;;20.86;100.00;99605.06;4993043;28;20815;-70
2022/06/11 05:10:41;;;;;;;25.27;18.25;;;;;;;20.78;100.00;99609.75;5011622;28;20204;-70
2022/06/11 05:13:10;;;;;;;27.10;17.52;;;;;;;20.87;100.00;99609.41;5012696;28;20264;-70
2022/06/11 05:15:40;;;;;;;24.77;18.05;;;;;;;20.89;100.00;99597.06;5031620;28;20199;-69
2022/06/11 05:18:08;;;;;;;23.38;17.88;;;;;;;20.76;100.00;99579.97;5030985;28;20656;-70
2022/06/11 05:20:35;;;;;;;23.13;18.13;;;;;;;20.96;100.00;99637.25;5031025;28;20211;-70
2022/06/11 05:23:02;;;;;;;23.35;17.60;;;;;;;20.73;100.00;99572.13;5029614;28;20188;-71
2022/06/11 05:25:30;;;;;;;23.52;18.42;;;;;;;20.96;100.00;99609.13;5030282;28;20587;-75
2022/06/11 05:27:57;;;;;;;24.38;17.95;;;;;;;21.09;100.00;99631.47;5030912;28;20728;-68
2022/06/11 05:30:27;;;;;;;22.40;18.05;;;;;;;21.18;100.00;99636.50;5029075;28;20204;-69
2022/06/11 05:32:54;;;;;;;24.90;17.02;;;;;;;21.20;100.00;99618.81;5030335;28;20199;-69
2022/06/11 05:35:24;;;;;;;23.40;17.63;;;;;;;21.24;100.00;99620.44;5030350;28;20200;-72
2022/06/11 05:37:53;;;;;;;23.30;16.85;;;;;;;21.77;100.00;99646.63;5030668;28;20204;-69
2022/06/11 05:40:24;;;;;;;21.83;15.52;;;;;;;21.60;100.00;99643.75;5030297;28;20208;-69
2022/06/11 05:42:52;;;;;;;24.55;17.25;;;;;;;21.87;100.00;99663.84;5030671;28;20240;-70
2022/06/11 05:45:23;;;;;;;22.30;17.98;;;;;;;21.90;100.00;99661.13;5030829;28;20626;-68
2022/06/11 05:47:53;;;;;;;24.38;17.70;;;;;;;22.09;100.00;99659.50;5030782;28;20211;-70
2022/06/11 05:50:24;;;;;;;24.52;17.88;;;;;;;22.01;100.00;99653.66;5003973;28;20211;-72
2022/06/11 05:52:52;;;;;;;21.08;17.33;;;;;;;21.75;100.00;99667.81;5027760;28;20211;-71
2022/06/11 05:55:23;;;;;;;19.42;15.70;;;;;;;21.59;100.00;99668.41;5030950;28;20196;-71
2022/06/11 05:57:54;;;;;;;23.17;17.50;;;;;;;21.77;100.00;99670.38;5030893;28;20208;-71
2022/06/11 06:00:24;;;;;;;21.50;15.98;;;;;;;21.65;100.00;99665.56;5030286;28;20212;-71
2022/06/11 06:02:51;;;;;;;22.73;17.17;;;;;;;21.49;100.00;99674.94;5026187;28;20208;-71
2022/06/11 06:05:19;;;;;;;22.92;15.65;;;;;;;;;;5030253;28;20228;-71
2022/06/11 06:07:46;;;;;;;24.48;17.38;;;;;;;21.32;100.00;99657.09;5030226;28;20211;-71
2022/06/11 06:10:13;;;;;;;20.95;16.98;;;;;;;21.41;100.00;99653.25;5035351;28;20210;-71
2022/06/11 06:12:40;;;;;;;30.90;17.90;;;;;;;21.43;100.00;99685.72;5040066;28;20204;-70
2022/06/11 06:15:14;;;;;;;21.73;17.80;;;;;;;21.59;100.00;99690.38;5048590;28;20211;-71
2022/06/11 06:17:42;;;;;;;26.92;18.52;;;;;;;21.53;100.00;99689.75;5045510;28;20291;-71
2022/06/11 06:20:12;;;;;;;22.27;16.42;;;;;;;21.70;100.00;99695.28;5041450;28;20222;-72
2022/06/11 06:22:40;;;;;;;22.38;16.25;;;;;;;21.56;100.00;99694.91;5048752;28;20200;-70
2022/06/11 06:25:07;;;;;;;25.52;16.38;;;;;;;21.53;100.00;99695.03;5052622;28;20223;-71
2022/06/11 06:27:34;;;;;;;24.75;17.52;;;;;;;21.44;100.00;99688.28;5053208;28;20195;-68
2022/06/11 06:30:01;;;;;;;25.60;18.25;;;;;;;21.54;100.00;99696.75;5034367;28;20208;-68
2022/06/11 06:32:29;;;;;;;26.90;19.02;;;;;;;21.12;100.00;99626.13;5033940;28;20208;-69
2022/06/11 06:34:56;;;;;;;29.23;18.88;;;;;;;21.46;100.00;99680.34;5033999;28;20215;-69
2022/06/11 06:37:23;;;;;;;26.45;15.88;;;;;;;21.29;100.00;99654.56;5033920;28;20212;-67
2022/06/11 06:39:50;;;;;;;21.65;16.77;;;;;;;21.50;100.00;99710.97;5036077;28;20195;-68
2022/06/11 06:42:17;;;;;;;21.67;16.15;;;;;;;21.68;100.00;99739.34;5013594;28;20204;-71
2022/06/11 06:44:44;;;;;;;23.80;17.38;;;;;;;21.75;100.00;99731.16;5033496;28;20232;-75
2022/06/11 06:47:11;;;;;;;22.67;18.25;;;;;;;21.79;100.00;99734.56;5033247;28;20203;-67
2022/06/11 06:49:39;;;;;;;79.32;49.53;;;;;;;22.34;100.00;99735.16;5049697;28;20206;-71
2022/06/11 06:52:06;;;;;;;30.38;19.35;;;;;;;22.40;100.00;99751.63;5039947;28;20196;-68
2022/06/11 06:54:33;;;;;;;21.58;16.70;;;;;;;22.23;100.00;99746.13;5033986;28;20200;-69
2022/06/11 06:57:00;;;;;;;21.73;15.82;;;;;;;22.36;100.00;99730.69;5033788;28;20204;-69
2022/06/11 06:59:26;;;;;;;19.23;15.05;;;;;;;22.49;100.00;99753.06;5013714;28;20193;-69
2022/06/11 07:01:53;;;;;;;17.77;15.52;;;;;;;22.46;100.00;99750.53;5033042;28;20282;-70
2022/06/11 07:04:20;;;;;;;17.45;14.13;;;;;;;22.30;100.00;99725.59;5033551;28;20220;-70
2022/06/11 07:06:48;;;;;;;18.75;15.68;;;;;;;22.51;100.00;99751.22;5031502;28;20211;-71
2022/06/11 07:09:15;;;;;;;17.05;14.27;;;;;;;22.08;100.00;99749.34;5033529;28;20219;-70
2022/06/11 07:11:42;;;;;;;18.77;15.35;;;;;;;22.12;100.00;99750.94;5033510;28;20211;-71
2022/06/11 07:14:09;;;;;;;22.40;15.88;;;;;;;22.40;100.00;99753.41;5033267;28;20247;-71
2022/06/11 07:16:40;;;;;;;16.98;15.05;;;;;;;22.59;100.00;99738.56;5014672;28;20219;-71
2022/06/11 07:19:14;;;;;;;17.63;15.30;;;;;;;22.66;100.00;99758.53;5033351;28;20204;-71
2022/06/11 07:21:44;;;;;;;19.00;14.20;;;;;;;22.80;100.00;99747.44;5033173;28;20196;-71
2022/06/11 07:24:16;;;;;;;16.80;14.15;;;;;;;22.78;100.00;99763.38;5033035;28;20235;-70
2022/06/11 07:26:47;;;;;;;17.60;11.77;;;;;;;22.36;100.00;99738.59;5032109;28;20684;-71
2022/06/11 07:29:18;;;;;;;16.20;12.48;;;;;;;22.77;100.00;99777.50;5032893;28;20201;-71
2022/06/11 07:31:47;;;;;;;14.40;12.55;;;;;;;22.70;100.00;99747.81;5032425;28;20227;-71
2022/06/11 07:34:15;;;;;;;12.07;10.75;;;;;;;22.26;100.00;99782.97;5035237;28;20211;-72
2022/06/11 07:36:42;;;;;;;12.45;11.15;;;;;;;22.03;100.00;99754.81;5031955;28;20578;-73
2022/06/11 07:39:09;;;;;;;13.02;11.38;;;;;;;22.31;100.00;99765.19;5039630;28;20203;-73
2022/06/11 07:41:37;;;;;;;12.25;11.00;;;;;;;22.64;100.00;99768.31;5028712;28;20208;-72
2022/06/11 07:44:04;;;;;;;14.98;11.27;;;;;;;22.63;100.00;99782.44;5026631;28;20232;-73
2022/06/11 07:46:31;;;;;;;13.23;11.82;;;;;;;22.88;100.00;99788.53;5032553;28;20200;-74
2022/06/11 07:48:58;;;;;;;12.27;10.98;;;;;;;23.46;100.00;99802.91;5030329;28;20212;-73
2022/06/11 07:51:25;;;;;;;11.95;10.75;;;;;;;23.57;100.00;99807.75;4999961;28;20222;-73
2022/06/11 07:53:52;;;;;;;12.98;9.75;;;;;;;23.29;100.00;99810.66;5023293;28;20212;-72
2022/06/11 07:56:20;;;;;;;11.88;9.80;;;;;;;23.34;100.00;99805.16;5034723;28;20212;-72
2022/06/11 07:58:49;;;;;;;8.57;7.78;;;;;;;23.21;100.00;99821.56;5041161;28;20749;-72
2022/06/11 08:01:16;;;;;;;9.68;8.75;;;;;;;23.15;100.00;99807.72;5041781;28;20289;-73
2022/06/11 08:03:43;;;;;;;12.13;9.25;;;;;;;23.06;100.00;99808.09;5043172;28;20200;-72
2022/06/11 08:06:10;;;;;;;12.38;9.05;;;;;;;23.12;100.00;99794.59;5030888;28;20232;-71
2022/06/11 08:08:37;;;;;;;10.52;9.43;;;;;;;22.72;100.00;99798.84;5028419;28;20600;-71
2022/06/11 08:11:06;;;;;;;12.73;10.50;;;;;;;22.77;100.00;99784.59;5028473;28;20216;-70
2022/06/11 08:13:34;;;;;;;10.85;9.70;;;;;;;22.86;100.00;99790.38;5028180;28;20730;-76
2022/06/11 08:16:03;;;;;;;10.88;9.50;;;;;;;23.08;100.00;99785.94;5028212;28;20204;-72
2022/06/11 08:18:32;;;;;;;8.07;7.18;;;;;;;22.93;100.00;99799.78;5027711;28;20299;-71
2022/06/11 08:20:59;;;;;;;11.07;9.50;;;;;;;22.86;100.00;99786.88;5028207;28;20204;-71
2022/06/11 08:23:26;;;;;;;11.05;9.40;;;;;;;22.69;100.00;99761.94;5027990;28;20215;-73
2022/06/11 08:25:54;;;;;;;11.15;10.00;;;;;;;22.69;100.00;99790.16;5028021;28;20269;-72
2022/06/11 08:28:21;;;;;;;12.18;10.70;;;;;;;22.67;100.00;99778.81;5027629;28;20700;-71
2022/06/11 08:30:48;;;;;;;10.13;9.23;;;;;;;22.47;100.00;99776.03;5020068;28;20200;-71
2022/06/11 08:33:16;;;;;;;8.98;7.63;;;;;;;22.41;100.00;99792.13;5027432;28;20524;-71
2022/06/11 08:35:44;;;;;;;9.27;8.32;;;;;;;22.82;100.00;99791.44;5032533;28;20214;-72
2022/06/11 08:38:12;;;;;;;8.00;7.05;;;;;;;22.69;100.00;99769.00;5032486;28;20212;-71
2022/06/11 08:40:42;;;;;;;8.95;8.05;;;;;;;22.79;100.00;99788.91;5027916;28;20200;-71
2022/06/11 08:43:17;;;;;;;11.60;7.63;;;;;;;22.56;100.00;99779.19;5027487;28;20204;-72
2022/06/11 08:45:47;;;;;;;9.63;8.73;;;;;;;22.24;100.00;99775.13;5029977;28;20243;-71
2022/06/11 08:48:23;;;;;;;10.27;9.18;;;;;;;22.60;100.00;99772.00;5030727;28;20207;-71
2022/06/11 08:51:01;;;;;;;8.65;7.82;;;;;;;22.91;100.00;99798.97;5029405;28;20200;-71
2022/06/11 08:53:28;;;;;;;8.27;7.47;;;;;;;22.14;100.00;99744.72;5031498;28;20212;-71
2022/06/11 08:55:56;;;;;;;8.70;7.65;;;;;;;22.83;100.00;99785.19;5031473;28;20226;-71
2022/06/11 08:58:36;;;;;;;9.00;8.13;;;;;;;22.47;100.00;99783.97;4996903;28;20208;-73
2022/06/11 09:01:11;;;;;;;8.70;7.80;;;;;;;22.66;100.00;99777.03;4996387;28;20196;-70
2022/06/11 09:03:53;;;;;;;8.05;6.82;;;;;;;22.43;100.00;99777.06;5030852;28;20208;-69
2022/06/11 09:06:50;;;;;;;8.27;7.20;;;;;;;22.70;100.00;99773.38;5030752;28;20235;-69
2022/06/11 09:09:25;;;;;;;8.05;6.78;;;;;;;22.68;100.00;99788.47;4989253;28;20205;-69
2022/06/11 09:12:05;;;;;;;7.20;6.50;;;;;;;22.71;100.00;99769.84;4988852;28;20205;-69
2022/06/11 09:14:51;;;;;;;7.60;6.47;;;;;;;22.93;100.00;99791.88;4989216;28;20249;-69
2022/06/11 09:17:32;;;;;;;6.90;6.20;;;;;;;23.06;100.00;99792.22;4989129;28;20213;-69
2022/06/11 09:20:14;;;;;;;7.00;6.40;;;;;;;23.26;100.00;99794.06;4989051;28;20208;-68
2022/06/11 09:23:02;;;;;;;8.15;7.35;;;;;;;23.21;100.00;99797.75;4937636;28;20210;-69
2022/06/11 09:25:38;;;;;;;7.82;7.10;;;;;;;22.98;100.00;99752.84;4977421;28;20655;-69
2022/06/11 09:28:11;;;;;;;10.95;7.65;;;;;;;22.83;100.00;99782.56;4989203;28;20236;-70
2022/06/11 09:30:43;;;;;;;8.93;8.05;;;;;;;22.48;100.00;99778.59;4988518;28;20221;-70
2022/06/11 09:33:15;;;;;;;9.02;8.13;;;;;;;22.23;100.00;99778.69;4988999;28;20230;-71
2022/06/11 09:35:51;;;;;;;12.57;9.77;;;;;;;22.36;100.00;99759.75;4985585;28;20240;-72
2022/06/11 09:38:31;;;;;;;11.50;10.30;;;;;;;22.68;100.00;99765.53;4987300;28;20259;-69
2022/06/11 09:41:11;;;;;;;11.27;10.15;;;;;;;22.73;100.00;99702.75;4984380;28;20208;-69
2022/06/11 09:43:46;;;;;;;11.63;8.98;;;;;;;22.65;100.00;99743.63;4993799;28;20770;-70
2022/06/11 09:46:21;;;;;;;11.57;10.00;;;;;;;23.33;100.00;99787.59;5006964;28;20255;-73
2022/06/11 09:49:03;;;;;;;10.23;9.23;;;;;;;23.05;100.00;99759.63;5026583;28;20210;-69
2022/06/11 09:51:43;;;;;;;8.35;7.57;;;;;;;22.82;100.00;99767.63;5031150;28;20294;-71
2022/06/11 09:54:29;;;;;;;9.15;8.35;;;;;;;23.21;100.00;99775.72;5027773;28;20219;-70
2022/06/11 09:57:06;;;;;;;10.35;9.35;;;;;;;23.14;100.00;99767.19;5030833;28;20207;-67
2022/06/11 09:59:37;;;;;;;11.15;8.10;;;;;;;23.15;100.00;99760.13;5030092;28;20211;-69
2022/06/11 10:02:18;;;;;;;10.55;9.57;;;;;;;23.47;100.00;99778.16;5030720;28;20203;-69
2022/06/11 10:04:47;;;;;;;10.13;9.23;;;;;;;23.20;100.00;99761.63;5030688;28;20277;-69
2022/06/11 10:07:20;;;;;;;32.70;21.63;;;;;;;23.45;100.00;99776.50;5030976;28;20212;-70
2022/06/11 10:09:56;;;;;;;10.68;8.93;;;;;;;23.17;100.00;99803.22;5030541;28;20200;-71
2022/06/11 10:12:27;;;;;;;9.50;8.55;;;;;;;23.13;100.00;99789.25;5031611;28;20208;-70
2022/06/11 10:15:00;;;;;;;10.75;9.65;;;;;;;23.20;100.00;99780.16;5031359;28;20311;-71
2022/06/11 10:17:31;;;;;;;11.43;8.85;;;;;;;23.41;100.00;99793.41;4995913;28;20576;-72
2022/06/11 10:20:07;;;;;;;12.85;10.95;;;;;;;23.22;100.00;99780.94;5030893;28;20640;-70
2022/06/11 10:22:41;;;;;;;11.70;10.60;;;;;;;23.46;100.00;99786.19;5031230;28;20302;-69
2022/06/11 10:25:20;;;;;;;11.57;10.43;;;;;;;23.34;100.00;99770.78;5030318;28;20310;-70
2022/06/11 10:27:50;;;;;;;10.32;9.32;;;;;;;23.14;100.00;99792.78;5030147;28;20289;-71
2022/06/11 10:30:33;;;;;;;11.38;10.25;;;;;;;23.09;100.00;99771.78;5030082;28;20227;-72
2022/06/11 10:33:05;;;;;;;11.43;10.25;;;;;;;22.93;100.00;99786.56;5030455;28;20969;-70
2022/06/11 10:35:39;;;;;;;12.15;10.23;;;;;;;22.96;100.00;99780.28;5029769;28;20216;-70
2022/06/11 10:38:21;;;;;;;10.95;9.90;;;;;;;22.56;100.00;99775.69;5030380;28;20204;-70
2022/06/11 10:40:51;;;;;;;12.85;11.45;;;;;;;22.43;100.00;99787.66;5029738;28;20700;-70
2022/06/11 10:43:25;;;;;;;13.35;11.63;;;;;;;22.27;100.00;99768.00;5030405;28;20630;-70
2022/06/11 10:45:52;;;;;;;12.77;11.50;;;;;;;22.17;100.00;99778.06;5029938;28;20220;-70
2022/06/11 10:48:22;;;;;;;15.95;13.00;;;;;;;22.45;100.00;99776.09;5030168;28;20215;-69
2022/06/11 10:50:50;;;;;;;16.45;13.30;;;;;;;22.77;100.00;99776.66;5029678;28;20208;-68
2022/06/11 10:53:25;;;;;;;13.70;12.15;;;;;;;23.19;100.00;99769.63;5030076;28;20210;-73
2022/06/11 10:55:55;;;;;;;13.20;11.82;;;;;;;23.15;100.00;99771.53;5029760;28;20212;-71
2022/06/11 10:58:29;;;;;;;12.48;11.20;;;;;;;22.92;100.00;99781.34;5029902;28;20204;-71
2022/06/11 11:00:59;;;;;;;13.20;11.80;;;;;;;22.50;100.00;99766.22;5009184;28;20211;-72
2022/06/11 11:03:32;;;;;;;15.73;12.70;;;;;;;22.45;100.00;99749.66;5029936;28;20623;-70
2022/06/11 11:06:05;;;;;;;75.15;44.97;;;;;;;22.22;100.00;99734.69;4998945;28;20232;-68
2022/06/11 11:08:34;;;;;;;14.75;11.98;;;;;;;22.16;100.00;99761.34;5029673;28;20212;-70
2022/06/11 11:11:02;;;;;;;14.88;11.93;;;;;;;21.84;100.00;99747.56;5029567;28;20236;-71
2022/06/11 11:13:35;;;;;;;17.33;14.18;;;;;;;21.87;100.00;99756.22;5029543;28;20238;-72
2022/06/11 11:16:16;;;;;;;17.33;14.82;;;;;;;22.23;100.00;99756.69;5029746;28;20235;-71
2022/06/11 11:18:50;;;;;;;15.95;14.35;;;;;;;22.52;100.00;99727.38;5029521;28;20212;-72
2022/06/11 11:21:22;;;;;;;16.17;12.70;;;;;;;22.61;100.00;99774.59;5029562;28;20223;-72
2022/06/11 11:23:54;;;;;;;15.82;14.13;;;;;;;22.91;100.00;99771.66;5029501;28;20208;-73
2022/06/11 11:26:31;;;;;;;15.30;13.32;;;;;;;23.33;100.00;99784.94;5029204;28;20240;-70
2022/06/11 11:29:08;;;;;;;14.80;12.60;;;;;;;23.53;100.00;99792.94;5022373;28;20756;-72